Time;durP1;ratioP1;P1;durP2;ratioP2;P2;SDS_P1;SDS_P2;PMS_P1;PMS_P2;Temp;Humidity;BMP_temperature;BMP_pressure;BME280_temperature;BME280_humidity;BME280_pressure;Samples;Min_cycle;Max_cycle;Signal;HPM_P1;HPM_P2
2021/10/31 00:00:37;;;;;;;7.13;4.85;;;25.40;34.20;;;;;;6139581;28;80166;-67
2021/10/31 00:03:37;;;;;;;7.10;4.10;;;25.40;34.20;;;;;;6143594;28;80887;-67
2021/10/31 00:06:38;;;;;;;7.72;4.50;;;25.40;34.10;;;;;;6142785;28;81625;-67
2021/10/31 00:09:38;;;;;;;8.52;4.40;;;25.40;34.30;;;;;;6151988;28;81505;-66
2021/10/31 00:12:39;;;;;;;6.15;4.55;;;25.40;34.10;;;;;;6138338;28;81884;-66
2021/10/31 00:15:40;;;;;;;6.95;4.32;;;25.40;34.20;;;;;;6140271;28;80512;-66
2021/10/31 00:18:40;;;;;;;6.50;4.43;;;25.40;34.10;;;;;;6140956;28;81638;-67
2021/10/31 00:21:41;;;;;;;7.05;4.47;;;25.40;34.10;;;;;;6146203;28;80844;-67
2021/10/31 00:24:41;;;;;;;6.68;4.35;;;25.40;34.20;;;;;;6155187;28;80228;-66
2021/10/31 00:27:42;;;;;;;6.05;4.05;;;25.40;34.00;;;;;;6145915;28;80471;-67
2021/10/31 00:30:42;;;;;;;7.15;4.97;;;25.30;34.10;;;;;;6138591;28;80591;-66
2021/10/31 00:33:43;;;;;;;5.07;3.80;;;25.30;34.10;;;;;;6146008;28;80440;-66
2021/10/31 00:36:43;;;;;;;9.27;4.68;;;25.30;34.20;;;;;;6152103;28;80732;-66
2021/10/31 00:39:44;;;;;;;5.60;3.95;;;25.30;34.30;;;;;;6144700;28;81309;-67
2021/10/31 00:42:44;;;;;;;10.25;4.55;;;25.30;34.20;;;;;;6149250;28;82964;-67
2021/10/31 00:45:45;;;;;;;6.15;4.22;;;25.30;34.20;;;;;;6137905;28;80500;-66
2021/10/31 00:48:46;;;;;;;5.88;4.57;;;25.40;34.10;;;;;;6139158;28;80307;-66
2021/10/31 00:51:46;;;;;;;7.30;4.80;;;25.30;34.20;;;;;;6149052;28;80462;-66
2021/10/31 00:54:47;;;;;;;6.85;4.35;;;25.30;34.20;;;;;;6144246;28;80903;-66
2021/10/31 00:57:47;;;;;;;6.82;4.60;;;25.30;34.10;;;;;;6159621;28;80724;-66
2021/10/31 01:00:49;;;;;;;5.90;4.32;;;25.30;34.30;;;;;;6144808;28;80532;-66
2021/10/31 01:03:50;;;;;;;6.40;4.47;;;25.30;34.20;;;;;;6156513;28;80411;-66
2021/10/31 01:06:51;;;;;;;6.43;4.43;;;25.30;34.20;;;;;;6155771;28;80949;-66
2021/10/31 01:09:51;;;;;;;7.53;4.55;;;25.30;34.20;;;;;;6159544;28;82103;-66
2021/10/31 01:12:52;;;;;;;10.15;4.78;;;25.30;34.20;;;;;;6145826;28;81157;-66
2021/10/31 01:15:52;;;;;;;6.95;4.45;;;25.30;34.30;;;;;;6152109;28;80819;-66
2021/10/31 01:18:53;;;;;;;7.95;5.10;;;25.30;34.30;;;;;;6157814;28;80536;-66
2021/10/31 01:21:54;;;;;;;6.70;4.97;;;25.30;34.20;;;;;;6158127;28;80619;-67
2021/10/31 01:24:54;;;;;;;5.88;4.82;;;25.30;34.30;;;;;;6146533;28;83130;-67
2021/10/31 01:27:55;;;;;;;6.50;4.72;;;25.30;35.00;;;;;;6154565;28;80935;-66
2021/10/31 01:30:55;;;;;;;7.75;5.38;;;25.30;34.40;;;;;;6148122;28;81684;-66
2021/10/31 01:33:56;;;;;;;6.40;4.85;;;25.30;34.40;;;;;;6157681;28;80726;-67
2021/10/31 01:36:57;;;;;;;6.57;4.90;;;25.30;34.40;;;;;;6150303;28;83208;-67
2021/10/31 01:39:57;;;;;;;9.27;5.10;;;25.30;34.30;;;;;;6137015;28;83366;-67
2021/10/31 01:42:58;;;;;;;7.25;5.30;;;25.30;34.40;;;;;;6146036;28;80482;-66
2021/10/31 01:45:59;;;;;;;8.90;5.45;;;25.30;34.40;;;;;;6145671;28;80331;-67
2021/10/31 01:49:00;;;;;;;8.30;5.15;;;25.30;34.50;;;;;;6155849;28;80070;-68
2021/10/31 01:52:00;;;;;;;8.38;5.78;;;25.30;34.60;;;;;;6144807;28;81445;-67
2021/10/31 01:55:00;;;;;;;8.18;4.75;;;25.30;34.40;;;;;;6148600;28;80870;-68
2021/10/31 01:58:01;;;;;;;7.55;5.60;;;25.30;34.30;;;;;;6141427;28;81055;-67
2021/10/31 02:01:02;;;;;;;7.35;5.35;;;25.20;34.20;;;;;;6154857;28;82257;-66
2021/10/31 02:04:02;;;;;;;8.18;5.55;;;25.20;34.20;;;;;;6148816;28;81665;-67
2021/10/31 02:07:03;;;;;;;8.13;5.55;;;25.20;34.00;;;;;;6149519;28;80474;-67
2021/10/31 02:10:03;;;;;;;7.57;4.97;;;25.20;33.90;;;;;;6141935;28;80583;-67
2021/10/31 02:13:04;;;;;;;8.75;5.32;;;25.20;33.80;;;;;;6143713;28;82174;-67
2021/10/31 02:16:04;;;;;;;8.13;5.13;;;25.20;33.80;;;;;;6144202;28;80549;-67
2021/10/31 02:19:05;;;;;;;7.25;5.05;;;25.20;34.00;;;;;;6142937;28;81403;-67
2021/10/31 02:22:06;;;;;;;8.60;5.43;;;25.20;34.10;;;;;;6150461;28;81320;-67
2021/10/31 02:25:07;;;;;;;7.45;5.28;;;25.20;34.10;;;;;;6144906;28;81698;-67
2021/10/31 02:28:07;;;;;;;8.18;5.20;;;25.20;34.30;;;;;;6150600;28;80600;-67
2021/10/31 02:31:08;;;;;;;7.00;4.78;;;25.20;34.30;;;;;;6148853;28;82599;-67
2021/10/31 02:34:08;;;;;;;7.85;5.22;;;25.20;34.30;;;;;;6145099;28;83396;-67
2021/10/31 02:37:09;;;;;;;7.80;5.60;;;25.20;34.30;;;;;;6142271;28;80623;-67
2021/10/31 02:40:09;;;;;;;8.07;5.47;;;25.10;34.30;;;;;;6155091;28;80774;-67
2021/10/31 02:43:10;;;;;;;7.03;5.53;;;25.20;34.30;;;;;;6143179;28;80387;-67
2021/10/31 02:46:10;;;;;;;7.38;5.20;;;25.20;34.30;;;;;;6152803;28;80633;-67
2021/10/31 02:49:11;;;;;;;8.85;6.32;;;25.10;34.30;;;;;;6148265;28;81762;-67
2021/10/31 02:52:12;;;;;;;9.10;5.82;;;25.10;34.30;;;;;;6147505;28;80822;-66
2021/10/31 02:55:12;;;;;;;7.15;5.40;;;25.20;34.40;;;;;;6151949;28;80543;-67
2021/10/31 02:58:13;;;;;;;8.18;5.80;;;25.20;34.40;;;;;;6150345;28;80475;-65
2021/10/31 03:01:13;;;;;;;10.55;7.20;;;25.10;34.20;;;;;;6145357;28;81822;-66
2021/10/31 03:04:14;;;;;;;10.00;6.60;;;25.20;34.30;;;;;;6151838;28;83390;-67
2021/10/31 03:07:14;;;;;;;10.07;6.55;;;25.10;34.10;;;;;;6145361;28;80943;-67
2021/10/31 03:10:15;;;;;;;12.07;6.78;;;25.10;34.20;;;;;;6144155;28;80259;-67
2021/10/31 03:13:16;;;;;;;11.90;7.63;;;25.10;34.20;;;;;;6144309;28;81839;-67
2021/10/31 03:16:17;;;;;;;13.30;7.03;;;25.10;34.10;;;;;;6140010;28;81677;-67
2021/10/31 03:19:17;;;;;;;9.48;6.70;;;25.10;34.10;;;;;;6138224;28;83335;-68
2021/10/31 03:22:18;;;;;;;13.40;7.22;;;25.10;34.20;;;;;;6142107;28;80378;-67
2021/10/31 03:25:18;;;;;;;9.35;6.90;;;25.10;34.20;;;;;;6155007;28;80689;-67
2021/10/31 03:28:18;;;;;;;10.50;7.30;;;25.10;34.20;;;;;;6148581;28;80631;-68
2021/10/31 03:31:19;;;;;;;10.02;7.40;;;25.10;34.20;;;;;;6136398;28;80852;-66
2021/10/31 03:34:20;;;;;;;8.98;6.68;;;25.10;34.30;;;;;;6144327;28;80483;-67
2021/10/31 03:37:20;;;;;;;10.10;6.82;;;25.10;34.20;;;;;;6143090;28;80861;-69
2021/10/31 03:40:21;;;;;;;10.77;6.90;;;25.10;34.20;;;;;;6155231;28;81150;-67
2021/10/31 03:43:21;;;;;;;10.13;7.22;;;25.10;34.30;;;;;;6149828;28;80453;-66
2021/10/31 03:46:22;;;;;;;11.13;7.03;;;25.10;34.20;;;;;;6152541;28;81646;-68
2021/10/31 03:49:22;;;;;;;10.88;6.95;;;25.10;34.30;;;;;;6155672;28;80279;-67
2021/10/31 03:52:23;;;;;;;11.02;6.90;;;25.10;34.60;;;;;;6150104;28;81591;-66
2021/10/31 03:55:23;;;;;;;12.45;7.70;;;25.10;34.40;;;;;;6143859;28;80547;-68
2021/10/31 03:58:24;;;;;;;9.25;6.47;;;25.10;34.30;;;;;;6143360;28;80948;-66
2021/10/31 04:01:24;;;;;;;9.98;7.40;;;25.10;34.90;;;;;;6149613;28;81582;-65
2021/10/31 04:04:25;;;;;;;15.35;7.47;;;25.10;34.70;;;;;;6137908;28;80283;-67
2021/10/31 04:07:25;;;;;;;11.02;7.18;;;25.10;34.90;;;;;;6151737;28;80300;-67
2021/10/31 04:10:26;;;;;;;9.10;6.35;;;25.10;34.80;;;;;;6139862;28;87891;-67
2021/10/31 04:13:26;;;;;;;9.77;6.45;;;25.10;34.60;;;;;;6143064;28;80930;-67
2021/10/31 04:16:27;;;;;;;10.07;6.53;;;25.10;34.60;;;;;;6151321;28;81459;-66
2021/10/31 04:19:27;;;;;;;11.93;7.32;;;25.10;34.60;;;;;;6145070;28;81323;-66
2021/10/31 04:22:28;;;;;;;9.93;6.68;;;25.10;34.50;;;;;;6156064;28;81236;-66
2021/10/31 04:25:28;;;;;;;15.10;7.15;;;25.10;34.50;;;;;;6165525;28;81256;-65
2021/10/31 04:28:29;;;;;;;9.82;6.68;;;25.10;34.60;;;;;;6154634;28;81193;-64
2021/10/31 04:31:30;;;;;;;12.05;6.25;;;25.10;34.60;;;;;;6162246;28;81305;-65
2021/10/31 04:34:30;;;;;;;11.93;6.72;;;25.10;34.90;;;;;;6161300;28;80484;-66
2021/10/31 04:37:33;;;;;;;10.38;7.30;;;25.10;34.60;;;;;;6155572;28;81317;-65
2021/10/31 04:40:35;;;;;;;9.38;6.82;;;25.10;35.00;;;;;;6155337;28;80548;-66
2021/10/31 04:43:36;;;;;;;7.78;5.63;;;25.10;35.30;;;;;;6153516;28;84038;-66
2021/10/31 04:46:37;;;;;;;10.23;6.57;;;25.10;34.90;;;;;;6158682;28;82718;-67
2021/10/31 04:49:37;;;;;;;9.85;6.10;;;25.10;34.90;;;;;;6152360;28;81161;-67
2021/10/31 04:52:42;;;;;;;9.88;5.95;;;25.10;35.20;;;;;;6168427;28;83285;-68
2021/10/31 04:55:43;;;;;;;10.90;6.10;;;25.10;35.10;;;;;;6158717;28;84557;-64
2021/10/31 04:58:43;;;;;;;10.45;6.40;;;25.00;35.20;;;;;;6155070;28;80723;-67
2021/10/31 05:01:45;;;;;;;10.18;6.60;;;25.00;35.30;;;;;;6156828;28;80733;-66
2021/10/31 05:04:46;;;;;;;9.38;6.28;;;25.10;35.50;;;;;;6154940;28;80855;-66
2021/10/31 05:07:48;;;;;;;9.65;6.22;;;25.10;35.90;;;;;;6159776;28;81260;-67
2021/10/31 05:10:49;;;;;;;9.20;6.18;;;25.10;35.70;;;;;;6144814;28;80142;-66
2021/10/31 05:13:50;;;;;;;12.35;7.13;;;25.10;35.90;;;;;;6143763;28;82209;-64
2021/10/31 05:16:50;;;;;;;7.85;5.97;;;25.10;36.00;;;;;;6159360;28;80537;-65
2021/10/31 05:19:51;;;;;;;10.10;6.15;;;25.10;36.00;;;;;;6157498;28;81456;-65
2021/10/31 05:22:51;;;;;;;10.32;6.40;;;25.10;36.70;;;;;;6150166;28;81744;-66
2021/10/31 05:25:52;;;;;;;67.78;22.80;;;25.10;38.00;;;;;;6147380;28;80476;-66
2021/10/31 05:28:52;;;;;;;127.30;42.38;;;25.10;39.00;;;;;;6145832;28;84405;-66
2021/10/31 05:31:53;;;;;;;444.30;137.70;;;25.10;39.30;;;;;;6160584;28;83022;-66
2021/10/31 05:34:53;;;;;;;578.88;191.80;;;25.10;40.40;;;;;;6140381;28;86007;-64
2021/10/31 05:37:58;;;;;;;526.85;176.23;;;25.10;41.40;;;;;;6138019;28;85227;-61
2021/10/31 05:40:58;;;;;;;418.83;139.55;;;25.20;42.00;;;;;;6133879;28;85700;-62
2021/10/31 05:43:59;;;;;;;400.15;127.70;;;25.20;42.90;;;;;;6147252;28;85254;-63
2021/10/31 05:47:00;;;;;;;329.70;107.60;;;25.20;42.10;;;;;;6140481;28;86163;-64
2021/10/31 05:50:01;;;;;;;302.90;98.75;;;25.20;42.80;;;;;;6142973;28;92772;-62
2021/10/31 05:53:01;;;;;;;250.93;84.78;;;25.20;42.20;;;;;;6144372;28;85641;-63
2021/10/31 05:56:04;;;;;;;216.55;72.05;;;25.20;42.70;;;;;;6143802;28;83911;-63
2021/10/31 05:59:05;;;;;;;202.48;68.93;;;25.20;44.10;;;;;;6150280;28;83929;-63
2021/10/31 06:02:05;;;;;;;182.52;63.10;;;25.20;44.60;;;;;;6142332;28;82952;-63
2021/10/31 06:05:06;;;;;;;148.43;51.67;;;25.30;43.70;;;;;;6145341;28;83011;-63
2021/10/31 06:08:13;;;;;;;124.15;44.40;;;25.20;43.60;;;;;;6143851;28;83067;-64
2021/10/31 06:11:13;;;;;;;97.72;36.22;;;25.20;43.40;;;;;;6150351;28;83104;-62
2021/10/31 06:14:14;;;;;;;84.60;31.15;;;25.30;43.20;;;;;;6146019;28;84085;-63
2021/10/31 06:17:14;;;;;;;82.30;31.13;;;25.30;43.50;;;;;;6148060;28;84488;-61
2021/10/31 06:20:15;;;;;;;65.93;25.50;;;25.30;43.10;;;;;;6139152;28;82827;-65
2021/10/31 06:23:16;;;;;;;64.00;23.50;;;25.30;42.30;;;;;;6140257;28;83207;-63
2021/10/31 06:26:16;;;;;;;55.67;22.65;;;25.30;42.10;;;;;;6149000;28;83944;-64
2021/10/31 06:29:17;;;;;;;53.40;22.17;;;25.30;41.70;;;;;;6141790;28;84352;-62
2021/10/31 06:32:17;;;;;;;53.63;21.33;;;25.30;41.20;;;;;;6147867;28;85187;-66
2021/10/31 06:35:18;;;;;;;48.05;19.48;;;25.40;40.70;;;;;;6139526;28;83367;-63
2021/10/31 06:38:18;;;;;;;39.97;17.75;;;25.40;40.00;;;;;;6149330;28;83727;-64
2021/10/31 06:41:19;;;;;;;38.80;17.17;;;25.30;38.90;;;;;;6141012;28;82859;-65
2021/10/31 06:44:19;;;;;;;27.52;15.00;;;25.10;38.50;;;;;;6134912;28;84315;-64
2021/10/31 06:47:20;;;;;;;30.50;14.57;;;25.10;38.00;;;;;;6147543;28;83557;-64
2021/10/31 06:50:21;;;;;;;25.33;13.90;;;25.10;37.80;;;;;;6147229;28;83423;-63
2021/10/31 06:53:22;;;;;;;26.17;14.07;;;25.10;37.40;;;;;;6149523;28;84300;-64
2021/10/31 06:56:25;;;;;;;24.15;12.07;;;25.10;37.50;;;;;;6125498;28;84604;-64
2021/10/31 06:59:26;;;;;;;27.50;13.27;;;25.10;37.90;;;;;;6135807;28;90247;-64
2021/10/31 07:02:26;;;;;;;22.73;12.35;;;25.10;37.60;;;;;;6147378;28;83080;-64
2021/10/31 07:05:27;;;;;;;23.92;13.30;;;25.20;37.40;;;;;;6138168;28;82812;-64
2021/10/31 07:08:27;;;;;;;23.25;12.73;;;25.20;37.50;;;;;;6141612;28;83630;-64
2021/10/31 07:11:28;;;;;;;21.75;12.25;;;25.20;37.60;;;;;;6136066;28;83437;-64
2021/10/31 07:14:28;;;;;;;245.60;81.22;;;25.30;37.40;;;;;;6142777;28;83709;-64
2021/10/31 07:17:29;;;;;;;375.80;121.65;;;25.30;37.50;;;;;;6139043;28;83294;-63
2021/10/31 07:20:29;;;;;;;338.95;107.60;;;25.30;37.10;;;;;;6136010;28;85599;-61
2021/10/31 07:23:30;;;;;;;251.30;85.47;;;25.30;37.00;;;;;;6133005;28;87167;-63
2021/10/31 07:26:30;;;;;;;206.55;69.38;;;25.30;36.50;;;;;;6144222;28;85226;-63
2021/10/31 07:29:31;;;;;;;167.48;60.00;;;25.30;36.60;;;;;;6135827;28;84870;-62
2021/10/31 07:32:31;;;;;;;152.73;49.53;;;25.40;36.50;;;;;;6136865;28;83158;-62
2021/10/31 07:35:32;;;;;;;116.18;42.15;;;25.40;36.20;;;;;;6140816;28;83009;-62
2021/10/31 07:38:34;;;;;;;91.60;34.13;;;25.40;35.80;;;;;;6140116;28;83825;-62
2021/10/31 07:41:34;;;;;;;73.40;30.38;;;25.50;35.70;;;;;;6144729;28;83956;-63
2021/10/31 07:44:35;;;;;;;69.53;29.40;;;25.40;35.40;;;;;;6145905;28;84157;-63
2021/10/31 07:47:35;;;;;;;60.85;24.23;;;25.50;35.10;;;;;;6146502;28;83651;-63
2021/10/31 07:50:36;;;;;;;49.85;21.48;;;25.60;35.00;;;;;;6138405;28;84265;-63
2021/10/31 07:53:41;;;;;;;45.03;21.27;;;25.60;35.20;;;;;;6143434;28;84158;-63
2021/10/31 07:56:42;;;;;;;46.53;19.17;;;25.60;35.10;;;;;;6148599;28;82969;-62
2021/10/31 07:59:42;;;;;;;34.72;16.88;;;25.70;35.40;;;;;;6144144;28;83685;-63
2021/10/31 08:02:43;;;;;;;41.70;17.50;;;25.70;35.60;;;;;;6140886;28;83206;-62
2021/10/31 08:05:44;;;;;;;32.25;15.88;;;25.70;35.60;;;;;;6139547;28;84683;-63
2021/10/31 08:08:45;;;;;;;34.38;15.57;;;25.80;34.90;;;;;;6146810;28;84243;-63
2021/10/31 08:11:45;;;;;;;25.88;13.80;;;25.90;35.20;;;;;;6141684;28;83169;-63
2021/10/31 08:14:46;;;;;;;23.75;14.30;;;25.90;35.20;;;;;;6144877;28;83461;-62
2021/10/31 08:17:46;;;;;;;25.70;14.30;;;25.90;35.10;;;;;;6142384;28;83733;-62
2021/10/31 08:20:47;;;;;;;25.77;14.63;;;26.00;35.20;;;;;;6147668;28;83985;-62
2021/10/31 08:23:47;;;;;;;25.85;12.13;;;26.00;35.00;;;;;;6133204;28;83621;-63
2021/10/31 08:26:48;;;;;;;21.48;12.75;;;26.10;35.30;;;;;;6141232;28;83618;-63
2021/10/31 08:29:50;;;;;;;24.38;12.88;;;26.10;35.20;;;;;;6144246;28;83473;-65
2021/10/31 08:32:50;;;;;;;23.30;13.85;;;26.10;35.40;;;;;;6147565;28;83241;-64
2021/10/31 08:35:51;;;;;;;20.77;11.65;;;26.10;35.50;;;;;;6144961;28;89919;-65
2021/10/31 08:38:52;;;;;;;24.55;11.95;;;26.10;35.20;;;;;;6147953;28;84905;-65
2021/10/31 08:41:53;;;;;;;18.85;11.23;;;26.20;35.70;;;;;;6149692;28;83224;-65
2021/10/31 08:44:53;;;;;;;18.02;10.68;;;26.20;36.10;;;;;;6147210;28;83663;-65
2021/10/31 08:47:54;;;;;;;17.85;11.30;;;26.20;37.10;;;;;;6149991;28;83017;-64
2021/10/31 08:50:55;;;;;;;23.27;11.73;;;26.30;36.80;;;;;;6145879;28;83437;-64
2021/10/31 08:53:55;;;;;;;17.38;10.30;;;26.30;36.30;;;;;;6145975;28;83257;-64
2021/10/31 08:56:56;;;;;;;16.63;10.07;;;26.30;36.60;;;;;;6149901;28;83213;-64
2021/10/31 08:59:56;;;;;;;19.45;10.82;;;26.30;35.90;;;;;;6147773;28;83049;-64
2021/10/31 09:02:57;;;;;;;17.88;10.63;;;26.30;35.50;;;;;;6145643;28;82942;-64
2021/10/31 09:05:57;;;;;;;17.40;10.20;;;26.30;35.40;;;;;;6145312;28;83530;-65
2021/10/31 09:08:58;;;;;;;16.25;10.38;;;26.40;35.50;;;;;;6148532;28;83567;-67
2021/10/31 09:11:59;;;;;;;15.38;10.15;;;26.40;35.50;;;;;;6149929;28;83401;-65
2021/10/31 09:15:00;;;;;;;15.95;10.50;;;26.40;35.50;;;;;;6153998;28;83292;-64
2021/10/31 09:18:00;;;;;;;13.07;9.45;;;26.40;35.40;;;;;;6154569;28;83088;-64
2021/10/31 09:21:01;;;;;;;12.43;9.30;;;26.40;35.30;;;;;;6148798;28;83366;-64
2021/10/31 09:24:01;;;;;;;17.40;10.80;;;26.50;35.40;;;;;;6156850;28;80450;-64
2021/10/31 09:27:03;;;;;;;15.65;10.00;;;26.50;36.00;;;;;;6152065;28;83049;-64
2021/10/31 09:30:03;;;;;;;13.50;9.52;;;26.50;35.30;;;;;;6148739;28;83188;-64
2021/10/31 09:33:04;;;;;;;14.90;9.88;;;26.60;35.40;;;;;;6156237;28;84779;-64
2021/10/31 09:36:04;;;;;;;14.30;8.93;;;26.60;35.30;;;;;;6151380;28;80537;-64
2021/10/31 09:39:05;;;;;;;12.93;9.23;;;26.60;36.10;;;;;;6151352;28;80183;-64
2021/10/31 09:42:07;;;;;;;12.82;9.18;;;26.70;35.40;;;;;;6151520;28;83325;-65
2021/10/31 09:45:07;;;;;;;13.32;8.50;;;26.70;35.40;;;;;;6147126;28;80461;-65
2021/10/31 09:48:08;;;;;;;12.40;8.55;;;26.70;35.20;;;;;;6152471;28;81171;-64
2021/10/31 09:51:09;;;;;;;15.93;8.90;;;26.80;35.10;;;;;;6147596;28;81848;-64
2021/10/31 09:54:09;;;;;;;17.98;10.45;;;26.80;35.30;;;;;;6154214;28;80721;-66
2021/10/31 09:57:10;;;;;;;16.65;10.82;;;26.90;36.20;;;;;;6152149;28;82869;-66
2021/10/31 10:00:10;;;;;;;17.83;9.95;;;26.90;37.00;;;;;;6146539;28;83462;-66
2021/10/31 10:03:22;;;;;;;18.52;9.48;;;27.00;37.10;;;;;;6149435;28;82642;-66
2021/10/31 10:06:22;;;;;;;13.75;8.77;;;27.10;35.90;;;;;;6150811;28;80639;-66
2021/10/31 10:09:23;;;;;;;13.68;8.98;;;27.10;36.20;;;;;;6153934;28;81183;-66
2021/10/31 10:12:24;;;;;;;18.30;8.63;;;27.20;37.60;;;;;;6148099;28;80376;-65
2021/10/31 10:15:24;;;;;;;12.65;8.02;;;27.30;36.80;;;;;;6152874;28;80383;-68
2021/10/31 10:18:25;;;;;;;10.50;8.35;;;27.40;35.80;;;;;;6153220;28;81109;-65
2021/10/31 10:21:25;;;;;;;12.40;8.35;;;27.50;35.30;;;;;;6148935;28;80343;-66
2021/10/31 10:24:26;;;;;;;15.35;8.27;;;27.50;36.20;;;;;;6150413;28;81259;-66
2021/10/31 10:27:27;;;;;;;13.00;7.75;;;27.60;35.60;;;;;;6154200;28;80198;-65
2021/10/31 10:30:28;;;;;;;11.18;8.18;;;27.60;34.50;;;;;;6154758;28;80564;-67
2021/10/31 10:33:28;;;;;;;10.55;7.70;;;27.70;35.40;;;;;;6153655;28;80903;-68
2021/10/31 10:36:29;;;;;;;9.38;6.53;;;27.70;35.90;;;;;;6152976;28;81713;-67
2021/10/31 10:39:29;;;;;;;11.35;7.15;;;27.70;35.30;;;;;;6154084;28;80681;-68
2021/10/31 10:42:31;;;;;;;10.38;7.10;;;27.80;34.50;;;;;;6156643;28;80184;-68
2021/10/31 10:45:32;;;;;;;12.82;7.30;;;27.90;34.70;;;;;;6153240;28;80586;-68
2021/10/31 10:48:32;;;;;;;8.43;6.20;;;27.90;35.00;;;;;;6151375;28;84157;-67
2021/10/31 10:51:33;;;;;;;7.47;6.25;;;28.00;34.80;;;;;;6148469;28;81304;-67
2021/10/31 10:54:34;;;;;;;9.23;6.57;;;28.00;34.90;;;;;;6148319;28;80583;-68
2021/10/31 10:57:34;;;;;;;14.18;7.20;;;28.00;34.70;;;;;;6154319;28;80878;-68
2021/10/31 11:00:35;;;;;;;11.98;7.93;;;28.10;34.80;;;;;;6143907;28;80315;-68
2021/10/31 11:03:36;;;;;;;17.05;7.82;;;28.10;34.90;;;;;;6144778;28;80626;-69
2021/10/31 11:06:36;;;;;;;16.20;8.65;;;28.20;35.30;;;;;;6147483;28;80782;-66
2021/10/31 11:09:37;;;;;;;14.88;8.55;;;28.20;35.30;;;;;;6148935;28;81549;-68
2021/10/31 11:12:38;;;;;;;15.73;8.93;;;28.20;34.90;;;;;;6154523;28;80606;-68
2021/10/31 11:15:38;;;;;;;14.27;10.05;;;28.30;35.20;;;;;;6147210;28;81569;-68
2021/10/31 11:18:39;;;;;;;17.00;12.38;;;28.30;35.00;;;;;;6147460;28;83677;-67
2021/10/31 11:21:39;;;;;;;27.70;13.77;;;28.40;34.60;;;;;;6146287;28;83192;-67
2021/10/31 11:24:40;;;;;;;22.35;13.77;;;28.40;34.60;;;;;;6161687;28;83217;-68
2021/10/31 11:27:40;;;;;;;24.88;18.63;;;28.40;33.40;;;;;;6149893;28;82712;-65
2021/10/31 11:30:41;;;;;;;36.38;23.63;;;28.40;34.70;;;;;;6148268;28;85021;-65
2021/10/31 11:33:43;;;;;;;30.10;19.08;;;28.40;35.90;;;;;;6142673;28;83078;-65
2021/10/31 11:36:43;;;;;;;32.88;19.10;;;28.40;35.40;;;;;;6137884;28;83266;-65
2021/10/31 11:39:44;;;;;;;25.52;17.90;;;28.50;35.80;;;;;;6141266;28;84019;-65
2021/10/31 11:42:44;;;;;;;23.08;15.52;;;28.50;35.90;;;;;;6138680;28;83035;-65
2021/10/31 11:45:45;;;;;;;22.20;16.13;;;28.40;36.00;;;;;;6143757;28;83144;-64
2021/10/31 11:48:45;;;;;;;18.50;13.50;;;28.40;35.20;;;;;;6136766;28;84227;-65
2021/10/31 11:51:50;;;;;;;13.05;10.75;;;28.50;35.10;;;;;;6135581;28;82861;-66
2021/10/31 11:54:50;;;;;;;12.70;10.57;;;28.50;33.60;;;;;;6141472;28;83104;-65
2021/10/31 11:57:51;;;;;;;13.65;9.95;;;28.50;32.40;;;;;;6144373;28;83801;-66
2021/10/31 12:00:57;;;;;;;14.00;9.30;;;28.50;32.20;;;;;;6140785;28;83498;-65
2021/10/31 12:03:57;;;;;;;14.05;8.50;;;28.50;32.60;;;;;;6148466;28;82002;-64
2021/10/31 12:06:58;;;;;;;15.13;9.50;;;28.60;32.20;;;;;;6148501;28;80704;-63
2021/10/31 12:09:59;;;;;;;10.02;7.97;;;28.60;33.00;;;;;;6146656;28;81958;-64
2021/10/31 12:12:59;;;;;;;7.28;6.53;;;28.50;33.80;;;;;;6144978;28;80601;-63
2021/10/31 12:16:00;;;;;;;9.60;7.10;;;28.50;33.90;;;;;;6147042;28;80723;-64
2021/10/31 12:19:04;;;;;;;9.50;7.00;;;28.50;33.50;;;;;;6142106;28;81532;-64
2021/10/31 12:22:05;;;;;;;8.88;6.53;;;28.50;33.20;;;;;;6145122;28;80521;-64
2021/10/31 12:25:06;;;;;;;8.80;6.05;;;28.50;32.60;;;;;;6140765;28;80679;-66
2021/10/31 12:28:06;;;;;;;7.93;5.85;;;28.40;32.30;;;;;;6148052;28;80509;-64
2021/10/31 12:31:07;;;;;;;9.23;6.00;;;28.40;31.10;;;;;;6141805;28;80761;-64
2021/10/31 12:34:07;;;;;;;7.40;6.30;;;28.40;31.20;;;;;;6143102;28;81718;-64
2021/10/31 12:37:08;;;;;;;9.18;6.10;;;28.50;31.80;;;;;;6150299;28;82148;-63
2021/10/31 12:40:09;;;;;;;15.13;6.28;;;28.50;32.00;;;;;;6151910;28;80548;-65
2021/10/31 12:43:09;;;;;;;7.78;5.90;;;28.60;32.20;;;;;;6153909;28;82541;-63
2021/10/31 12:46:10;;;;;;;7.72;5.40;;;28.60;32.60;;;;;;6151979;28;81148;-64
2021/10/31 12:49:10;;;;;;;6.65;5.32;;;28.60;32.40;;;;;;6148303;28;80674;-64
2021/10/31 12:52:11;;;;;;;7.32;5.72;;;28.70;32.30;;;;;;6150185;28;81203;-63
2021/10/31 12:55:11;;;;;;;7.95;6.13;;;28.70;32.30;;;;;;6150757;28;85438;-63
2021/10/31 12:58:12;;;;;;;9.32;5.80;;;28.70;31.80;;;;;;6145502;28;80203;-64
2021/10/31 13:01:12;;;;;;;7.13;5.78;;;28.70;31.70;;;;;;6149445;28;80958;-63
2021/10/31 13:04:13;;;;;;;8.77;6.35;;;28.80;31.90;;;;;;6151303;28;80559;-62
2021/10/31 13:07:13;;;;;;;9.75;6.18;;;28.80;32.40;;;;;;6154033;28;81799;-62
2021/10/31 13:10:14;;;;;;;9.52;5.88;;;28.80;32.70;;;;;;6145518;28;81428;-63
2021/10/31 13:13:17;;;;;;;10.10;6.43;;;28.90;32.90;;;;;;6155670;28;80341;-63
2021/10/31 13:16:18;;;;;;;9.35;6.78;;;29.10;33.40;;;;;;6146375;28;80649;-65
2021/10/31 13:19:18;;;;;;;11.90;5.88;;;29.30;33.20;;;;;;6149586;28;82878;-64
2021/10/31 13:22:20;;;;;;;7.65;6.10;;;29.80;32.40;;;;;;6152316;28;80698;-64
2021/10/31 13:25:20;;;;;;;10.98;6.65;;;30.60;31.60;;;;;;6140019;28;80222;-63
2021/10/31 13:28:21;;;;;;;8.85;6.95;;;31.10;31.00;;;;;;6140590;28;80473;-64
2021/10/31 13:31:24;;;;;;;11.68;6.25;;;31.50;30.70;;;;;;6140568;28;80734;-62
2021/10/31 13:34:24;;;;;;;9.60;6.90;;;31.70;30.40;;;;;;6154708;28;80400;-64
2021/10/31 13:37:25;;;;;;;7.30;6.38;;;31.90;30.40;;;;;;6147588;28;81991;-63
2021/10/31 13:40:25;;;;;;;10.60;7.15;;;32.00;30.00;;;;;;6150174;28;80326;-64
2021/10/31 13:43:26;;;;;;;16.52;7.35;;;32.00;30.20;;;;;;6142408;28;80783;-65
2021/10/31 13:46:26;;;;;;;7.45;6.22;;;32.10;29.70;;;;;;6152537;28;82218;-63
2021/10/31 13:49:27;;;;;;;8.65;6.45;;;32.10;30.10;;;;;;6156209;28;80304;-63
2021/10/31 13:52:27;;;;;;;9.15;6.95;;;32.00;30.10;;;;;;6151389;28;80686;-65
2021/10/31 13:55:28;;;;;;;11.70;6.72;;;31.70;30.20;;;;;;6144457;28;80996;-66
2021/10/31 13:58:29;;;;;;;14.13;7.60;;;31.20;31.60;;;;;;6151022;28;81951;-63
2021/10/31 14:01:29;;;;;;;11.43;7.57;;;30.60;31.40;;;;;;6148432;28;82813;-63
2021/10/31 14:04:30;;;;;;;10.73;8.32;;;30.20;31.60;;;;;;6148585;28;80458;-63
2021/10/31 14:07:31;;;;;;;13.15;9.90;;;29.90;31.80;;;;;;6144290;28;80389;-63
2021/10/31 14:10:31;;;;;;;12.95;7.97;;;29.60;31.90;;;;;;6145421;28;80486;-63
2021/10/31 14:13:32;;;;;;;9.80;7.85;;;29.40;32.00;;;;;;6141914;28;80297;-63
2021/10/31 14:16:32;;;;;;;12.23;8.15;;;29.20;32.20;;;;;;6147624;28;83802;-62
2021/10/31 14:19:33;;;;;;;9.55;7.63;;;29.00;32.10;;;;;;6150700;28;80936;-62
2021/10/31 14:22:33;;;;;;;13.25;7.63;;;28.90;32.40;;;;;;6148443;28;80765;-62
2021/10/31 14:25:34;;;;;;;14.40;8.05;;;28.80;32.60;;;;;;6146956;28;81543;-63
2021/10/31 14:28:35;;;;;;;12.63;6.85;;;28.60;32.50;;;;;;6145995;28;80746;-64
2021/10/31 14:31:36;;;;;;;11.90;7.07;;;28.50;32.70;;;;;;6145615;28;80498;-64
2021/10/31 14:34:36;;;;;;;10.07;8.00;;;28.40;32.70;;;;;;6147865;28;80568;-64
2021/10/31 14:37:37;;;;;;;9.20;7.43;;;28.30;32.70;;;;;;6151248;28;81681;-63
2021/10/31 14:40:37;;;;;;;13.38;8.23;;;28.20;32.70;;;;;;6144765;28;80564;-63
2021/10/31 14:43:38;;;;;;;12.45;8.32;;;28.10;32.70;;;;;;6148715;28;81485;-63
2021/10/31 14:46:38;;;;;;;11.10;7.47;;;28.00;32.80;;;;;;6150956;28;81639;-63
2021/10/31 14:49:39;;;;;;;14.93;7.47;;;27.90;32.80;;;;;;6150027;28;80330;-63
2021/10/31 14:52:39;;;;;;;11.35;7.22;;;27.80;32.70;;;;;;6157239;28;80714;-63
2021/10/31 14:55:40;;;;;;;10.10;7.25;;;27.70;32.80;;;;;;6155526;28;83128;-63
2021/10/31 14:58:41;;;;;;;12.50;7.88;;;27.60;33.10;;;;;;6141282;28;82808;-64
2021/10/31 15:01:43;;;;;;;11.02;7.15;;;27.60;34.00;;;;;;6150574;28;86420;-65
2021/10/31 15:04:43;;;;;;;10.15;6.57;;;27.50;34.10;;;;;;6142956;28;80842;-62
2021/10/31 15:07:44;;;;;;;10.73;6.97;;;27.40;34.10;;;;;;6143401;28;80115;-63
2021/10/31 15:10:44;;;;;;;9.10;7.15;;;27.40;34.10;;;;;;6150489;28;80962;-62
2021/10/31 15:13:45;;;;;;;15.00;8.30;;;27.30;34.30;;;;;;6137406;28;82195;-62
2021/10/31 15:16:45;;;;;;;11.40;7.50;;;27.20;34.60;;;;;;6140570;28;81214;-63
2021/10/31 15:19:46;;;;;;;13.73;8.40;;;27.20;34.90;;;;;;6136919;28;88250;-62
2021/10/31 15:22:50;;;;;;;12.70;7.93;;;27.10;35.00;;;;;;6136741;28;80434;-63
2021/10/31 15:25:50;;;;;;;9.55;7.15;;;27.00;35.10;;;;;;6143505;28;83110;-62